Time;durP1;ratioP1;P1;durP2;ratioP2;P2;SDS_P1;SDS_P2;PMS_P1;PMS_P2;Temp;Humidity;BMP_temperature;BMP_pressure;BME280_temperature;BME280_humidity;BME280_pressure;Samples;Min_cycle;Max_cycle;Signal;HPM_P1;HPM_P2
2021/12/14 00:02:30;;;;;;;45.00;20.92;;;;;;;16.92;54.77;96590.13;10454093;28;20076;-72
2021/12/14 00:07:32;;;;;;;47.13;21.63;;;;;;;16.90;54.74;96577.28;10453124;28;20560;-72
2021/12/14 00:12:55;;;;;;;41.53;20.50;;;;;;;16.89;54.56;96575.66;10453635;28;20479;-72
2021/12/14 00:18:01;;;;;;;43.88;20.38;;;;;;;16.88;54.55;96571.47;10453638;28;20041;-72
2021/12/14 00:28:17;;;;;;;37.88;19.00;;;;;;;16.89;54.47;96574.88;10461105;28;20049;-72
2021/12/14 00:33:23;;;;;;;38.30;18.38;;;;;;;16.85;54.33;96570.00;10460871;28;20087;-72
2021/12/14 00:38:26;;;;;;;38.38;17.98;;;;;;;16.85;54.46;96582.22;10426728;28;20049;-72
2021/12/14 00:43:28;;;;;;;35.50;17.77;;;;;;;16.84;54.51;96580.59;10460673;28;20549;-72
2021/12/14 00:48:29;;;;;;;32.03;16.10;;;;;;;16.82;54.34;96583.38;10460135;28;20963;-73
2021/12/14 00:53:31;;;;;;;33.25;17.20;;;;;;;16.79;54.42;96578.53;10442619;28;20162;-72
2021/12/14 00:58:34;;;;;;;34.35;17.02;;;;;;;16.77;54.35;96572.69;10459692;28;20037;-73
2021/12/14 01:03:39;;;;;;;30.30;15.80;;;;;;;16.75;54.49;96563.44;10459748;28;20041;-72
2021/12/14 01:08:45;;;;;;;29.27;15.02;;;;;;;16.74;54.40;96570.47;10441975;28;20055;-73
2021/12/14 01:13:59;;;;;;;29.50;15.90;;;;;;;16.75;54.31;96576.47;10441382;28;20095;-72
2021/12/14 01:19:14;;;;;;;28.58;14.65;;;;;;;16.76;54.10;96565.88;10459222;28;20282;-72
2021/12/14 01:29:39;;;;;;;26.33;13.77;;;;;;;16.72;54.27;96575.06;10441017;28;20395;-72
2021/12/14 01:34:41;;;;;;;24.98;14.05;;;;;;;16.70;54.27;96587.44;10440487;28;20045;-72
2021/12/14 01:40:02;;;;;;;24.23;13.65;;;;;;;16.69;53.95;96612.72;10440880;28;20399;-72
2021/12/14 01:45:21;;;;;;;23.63;13.07;;;;;;;16.67;54.04;96606.88;10440178;28;20045;-72
2021/12/14 01:50:29;;;;;;;24.75;12.75;;;;;;;16.65;54.23;96602.84;10424043;28;20099;-72
2021/12/14 01:56:04;;;;;;;26.10;12.45;;;;;;;16.64;54.21;96606.44;10448540;28;20384;-72
2021/12/14 02:01:12;;;;;;;19.33;11.27;;;;;;;16.63;54.09;96599.59;10457642;28;20487;-73
2021/12/14 02:06:18;;;;;;;20.88;11.80;;;;;;;16.63;54.03;96595.19;10439265;28;20091;-72
2021/12/14 02:11:20;;;;;;;21.25;11.43;;;;;;;16.61;54.24;96605.00;10439728;28;20045;-72
2021/12/14 02:16:23;;;;;;;21.23;10.73;;;;;;;16.59;54.10;96606.16;10439171;28;20053;-72
2021/12/14 02:21:33;;;;;;;20.20;11.50;;;;;;;16.58;54.04;96605.38;10456868;28;20124;-72
2021/12/14 02:26:41;;;;;;;21.20;10.65;;;;;;;16.58;54.21;96601.97;10456521;28;20045;-75
2021/12/14 02:31:43;;;;;;;19.98;10.88;;;;;;;16.55;54.06;96600.50;10438192;28;20502;-75
2021/12/14 02:36:48;;;;;;;18.10;10.40;;;;;;;16.54;54.06;96592.88;10438507;28;20048;-71
2021/12/14 02:41:54;;;;;;;18.35;10.02;;;;;;;16.53;53.91;96588.63;10437622;28;20562;-75
2021/12/14 02:47:00;;;;;;;17.13;9.20;;;;;;;16.51;54.04;96596.63;10438092;28;20602;-72
2021/12/14 02:52:09;;;;;;;16.83;9.52;;;;;;;16.50;53.95;96580.19;10437057;28;20044;-77
2021/12/14 02:57:16;;;;;;;16.35;9.90;;;;;;;16.49;54.02;96585.59;10435890;28;20045;-72
2021/12/14 03:02:25;;;;;;;15.15;9.43;;;;;;;16.48;54.15;96582.19;10462366;28;20048;-72
2021/12/14 03:07:31;;;;;;;17.83;9.50;;;;;;;16.46;54.17;96578.97;10494981;28;20139;-72
2021/12/14 03:12:40;;;;;;;16.50;8.60;;;;;;;16.46;53.99;96576.34;10496547;28;20044;-73
2021/12/14 03:17:43;;;;;;;13.13;8.07;;;;;;;16.45;53.80;96577.34;10496751;28;20044;-72
2021/12/14 03:22:55;;;;;;;15.25;8.60;;;;;;;16.42;53.86;96576.91;10494932;28;20128;-72
2021/12/14 03:27:58;;;;;;;12.10;7.80;;;;;;;16.42;54.08;96582.91;10496201;28;20041;-73
2021/12/14 03:33:07;;;;;;;13.25;7.90;;;;;;;16.40;53.81;96586.66;10494471;28;20049;-72
2021/12/14 03:38:19;;;;;;;14.40;8.30;;;;;;;16.39;53.87;96580.66;10494971;28;20102;-73
2021/12/14 03:43:22;;;;;;;13.27;7.50;;;;;;;16.36;53.86;96573.22;10494132;28;20094;-72
2021/12/14 03:48:30;;;;;;;10.52;6.93;;;;;;;16.35;53.76;96576.00;10494439;28;20052;-72
2021/12/14 03:53:32;;;;;;;11.27;7.20;;;;;;;16.35;53.85;96576.00;10494458;28;20054;-72
2021/12/14 03:58:39;;;;;;;11.85;7.00;;;;;;;16.34;53.67;96588.22;10502062;28;20048;-72
2021/12/14 04:03:42;;;;;;;11.97;7.00;;;;;;;16.30;53.72;96574.75;10502625;28;20060;-73
2021/12/14 04:08:52;;;;;;;11.18;6.80;;;;;;;16.30;53.61;96577.34;10486198;28;20397;-72
2021/12/14 04:13:54;;;;;;;10.23;6.72;;;;;;;16.29;53.83;96575.72;10502615;28;20135;-72
2021/12/14 04:19:12;;;;;;;9.80;6.10;;;;;;;16.29;53.70;96569.72;10501910;28;20048;-73
2021/12/14 04:24:20;;;;;;;9.73;6.23;;;;;;;16.29;53.60;96574.94;10501884;28;20052;-72
2021/12/14 04:29:23;;;;;;;9.35;6.28;;;;;;;16.26;53.79;96568.28;10501212;28;20079;-73
2021/12/14 04:34:29;;;;;;;9.23;6.20;;;;;;;16.26;53.75;96563.06;10501051;28;20036;-73
2021/12/14 04:39:45;;;;;;;10.38;5.97;;;;;;;16.25;53.83;96555.44;10501140;28;20048;-73
2021/12/14 04:55:41;;;;;;;9.18;5.90;;;;;;;16.21;53.89;96533.31;10500145;28;20513;-72
2021/12/14 05:00:48;;;;;;;9.73;5.40;;;;;;;16.21;53.90;96541.97;10488267;28;20064;-76
2021/12/14 05:06:20;;;;;;;8.15;4.88;;;;;;;16.20;53.94;96549.97;10441094;28;20053;-72
2021/12/14 05:11:23;;;;;;;6.93;5.20;;;;;;;16.20;53.55;96549.97;10441804;28;20055;-72
2021/12/14 05:16:28;;;;;;;7.00;4.85;;;;;;;16.19;53.68;96543.13;10441334;28;20557;-72
2021/12/14 05:21:45;;;;;;;6.55;4.53;;;;;;;16.19;53.90;96548.34;10441506;28;20067;-74
2021/12/14 05:26:54;;;;;;;;;;;;;;;16.18;53.44;96557.13;10441135;28;20139;-73
2021/12/14 05:32:00;;;;;;;8.10;4.88;;;;;;;16.19;53.53;96563.97;10441237;28;19978;-73
2021/12/14 05:37:03;;;;;;;6.65;4.80;;;;;;;16.18;53.45;96559.72;10424643;28;20041;-73
2021/12/14 05:47:23;;;;;;;6.73;4.40;;;;;;;16.16;53.43;96536.47;10440247;28;20061;-72
2021/12/14 05:52:36;;;;;;;10.55;4.85;;;;;;;16.16;54.32;96533.84;10439584;28;20048;-72
2021/12/14 05:57:44;;;;;;;12.63;4.70;;;;;;;16.14;54.50;96541.84;10440028;28;20045;-72
2021/12/14 06:02:47;;;;;;;16.50;5.32;;;;;;;16.14;54.65;96534.03;10471638;28;20102;-79
2021/12/14 06:07:51;;;;;;;10.82;4.60;;;;;;;16.12;54.79;96536.03;10496670;28;20045;-78
2021/12/14 06:12:53;;;;;;;23.70;6.13;;;;;;;16.13;58.22;96534.25;10496396;28;20044;-77
2021/12/14 06:17:55;;;;;;;28.20;6.90;;;;;;;16.16;62.08;96528.66;10478890;28;20072;-76
2021/12/14 06:23:28;;;;;;;17.13;5.65;;;;;;;16.19;62.43;96525.69;10497251;28;20049;-74
2021/12/14 06:28:41;;;;;;;15.15;3.13;;;;;;;15.75;45.93;96519.47;10496569;28;20137;-73
2021/12/14 06:33:43;;;;;;;10.98;3.45;;;;;;;15.26;47.12;96519.13;10512996;28;20045;-74
2021/12/14 06:38:45;;;;;;;14.23;4.28;;;;;;;15.03;54.59;96518.13;10476917;28;20051;-75
2021/12/14 06:43:53;;;;;;;19.60;4.43;;;;;;;15.07;57.88;96521.19;10467557;28;20043;-72
2021/12/14 06:49:09;;;;;;;10.85;4.53;;;;;;;15.18;60.09;96518.19;10476184;28;20379;-80
2021/12/14 06:54:15;;;;;;;18.15;4.30;;;;;;;15.31;59.96;96501.97;10484704;28;20504;-78
2021/12/14 06:59:29;;;;;;;8.05;3.85;;;;;;;15.41;59.44;96494.75;10492120;28;20047;-78
2021/12/14 07:04:53;;;;;;;11.88;4.07;;;;;;;15.50;59.34;96502.47;10451424;28;20049;-79
2021/12/14 07:09:59;;;;;;;11.57;3.83;;;;;;;15.57;58.69;96506.81;10434074;28;20102;-78
2021/12/14 07:15:12;;;;;;;6.80;3.22;;;;;;;15.64;58.69;96499.09;10452254;28;20403;-80
2021/12/14 07:20:13;;;;;;;9.73;3.90;;;;;;;15.67;58.43;96503.94;10452832;28;20495;-78
2021/12/14 07:25:37;;;;;;;7.93;2.92;;;;;;;15.74;58.31;96506.63;10450358;28;20041;-80
2021/12/14 07:30:54;;;;;;;7.30;3.40;;;;;;;15.78;57.97;96508.72;10433944;28;20529;-81
2021/12/14 07:35:57;;;;;;;7.30;2.90;;;;;;;15.82;57.47;96513.59;10453596;28;20060;-81
2021/12/14 07:41:11;;;;;;;8.35;2.75;;;;;;;15.85;57.20;96523.63;10454249;28;20037;-79
2021/12/14 07:46:27;;;;;;;6.18;2.72;;;;;;;15.88;56.96;96533.69;10453419;28;20473;-81
2021/12/14 07:51:33;;;;;;;8.63;2.80;;;;;;;15.89;56.53;96540.50;10449157;28;21015;-79
2021/12/14 07:56:51;;;;;;;7.18;2.88;;;;;;;15.90;56.36;96553.34;10452885;28;20041;-81
2021/12/14 08:02:11;;;;;;;4.57;2.45;;;;;;;15.93;56.05;96545.19;10451422;28;20471;-81
2021/12/14 08:07:31;;;;;;;5.80;2.70;;;;;;;15.95;56.23;96545.00;10451357;28;20396;-76
2021/12/14 08:12:56;;;;;;;4.30;2.60;;;;;;;15.96;57.02;96562.25;10451768;28;20057;-76
2021/12/14 08:17:57;;;;;;;8.77;2.70;;;;;;;15.97;56.72;96558.63;10453196;28;20052;-78
2021/12/14 08:23:16;;;;;;;4.55;2.38;;;;;;;16.01;56.34;96546.09;10453685;28;20510;-77
2021/12/14 08:28:21;;;;;;;3.30;2.28;;;;;;;16.02;56.42;96538.09;10453551;28;20080;-77
2021/12/14 08:33:42;;;;;;;7.45;2.50;;;;;;;16.04;56.32;96548.34;10453314;28;20044;-77
2021/12/14 08:38:44;;;;;;;5.13;2.35;;;;;;;16.06;55.89;96548.97;10453606;28;20033;-78
2021/12/14 08:43:50;;;;;;;3.75;2.30;;;;;;;16.09;55.74;96553.81;10458858;28;20440;-77
2021/12/14 08:48:55;;;;;;;6.57;2.70;;;;;;;16.11;55.91;96547.44;10460674;28;20124;-77
2021/12/14 08:54:00;;;;;;;5.10;2.30;;;;;;;16.14;55.56;96531.44;10460040;28;20041;-78
2021/12/14 08:59:03;;;;;;;5.45;2.40;;;;;;;16.15;55.33;96519.25;10460144;28;20045;-78
2021/12/14 09:04:31;;;;;;;6.78;2.70;;;;;;;16.18;55.54;96520.66;10459972;28;20049;-77
2021/12/14 09:09:34;;;;;;;3.33;2.20;;;;;;;16.19;55.12;96524.88;10459794;28;20049;-77
2021/12/14 09:14:36;;;;;;;3.13;2.08;;;;;;;16.20;55.00;96529.91;10459369;28;20040;-75
2021/12/14 09:19:43;;;;;;;3.22;2.40;;;;;;;16.22;55.26;96512.31;10458851;28;20049;-75
2021/12/14 09:24:45;;;;;;;4.90;2.58;;;;;;;16.26;54.86;96491.94;10459099;28;20369;-76
2021/12/14 09:29:49;;;;;;;4.18;2.33;;;;;;;16.28;54.57;96488.13;10458531;28;20378;-75
2021/12/14 09:34:51;;;;;;;4.35;2.30;;;;;;;16.29;54.88;96496.78;10458224;28;20049;-74
2021/12/14 09:39:58;;;;;;;3.35;2.00;;;;;;;16.32;54.50;96484.19;10458284;28;20368;-75
2021/12/14 09:45:08;;;;;;;3.88;2.55;;;;;;;16.35;54.30;96477.78;10457976;28;20067;-75
2021/12/14 09:50:22;;;;;;;4.30;2.67;;;;;;;16.37;54.27;96486.25;10457749;28;20537;-75
2021/12/14 09:55:28;;;;;;;3.00;2.25;;;;;;;16.40;53.96;96469.41;10440091;28;20041;-75
2021/12/14 10:00:39;;;;;;;2.75;2.30;;;;;;;16.43;53.72;96482.09;10456989;28;20060;-75
2021/12/14 10:05:44;;;;;;;3.63;2.38;;;;;;;16.46;53.58;96489.53;10457174;28;20480;-75
2021/12/14 10:11:01;;;;;;;3.45;2.17;;;;;;;16.48;53.04;96498.81;10456493;28;20047;-75
2021/12/14 10:16:06;;;;;;;2.47;2.28;;;;;;;16.49;53.19;96481.34;10456811;28;20499;-76
2021/12/14 10:21:27;;;;;;;2.88;2.13;;;;;;;16.51;53.49;96481.97;10456355;28;20041;-75
2021/12/14 10:26:32;;;;;;;2.20;2.00;;;;;;;16.53;53.06;96484.41;10456489;28;20045;-76
2021/12/14 10:31:40;;;;;;;2.92;2.45;;;;;;;16.55;53.17;96487.66;10455998;28;20044;-75
2021/12/14 10:36:46;;;;;;;2.78;2.38;;;;;;;16.57;52.59;96485.66;10456140;28;20047;-75
2021/12/14 10:47:15;;;;;;;3.00;2.20;;;;;;;16.60;52.92;96477.47;10455574;28;20049;-76
2021/12/14 10:52:24;;;;;;;2.60;2.30;;;;;;;16.60;52.66;96480.88;10455842;28;20037;-76
2021/12/14 10:57:30;;;;;;;3.78;2.20;;;;;;;16.61;52.44;96485.09;10437804;28;20045;-75
2021/12/14 11:02:40;;;;;;;3.55;2.22;;;;;;;16.60;52.41;96495.72;10454989;28;20490;-75
2021/12/14 11:07:46;;;;;;;4.00;2.53;;;;;;;16.62;52.55;96494.53;10454751;28;20059;-76
2021/12/14 11:12:52;;;;;;;2.70;2.28;;;;;;;16.63;52.64;96496.16;10454510;28;20047;-75
2021/12/14 11:18:11;;;;;;;2.33;2.13;;;;;;;16.64;52.24;96496.97;10454723;28;20514;-76
2021/12/14 11:23:35;;;;;;;2.38;2.13;;;;;;;16.63;52.15;96503.16;10454659;28;20135;-76
2021/12/14 11:28:57;;;;;;;3.97;2.50;;;;;;;16.65;52.17;96494.16;10453934;28;20049;-76
2021/12/14 11:34:12;;;;;;;2.53;2.25;;;;;;;16.67;52.10;96496.56;10454112;28;20041;-76
2021/12/14 11:39:25;;;;;;;4.53;2.58;;;;;;;16.68;52.22;96485.16;10454066;28;20041;-76
2021/12/14 11:44:28;;;;;;;3.60;2.83;;;;;;;16.68;52.15;96483.34;10454030;28;20041;-76
2021/12/14 11:50:08;;;;;;;2.60;2.40;;;;;;;16.72;52.16;96483.81;10453786;28;20475;-76
2021/12/14 11:55:29;;;;;;;3.45;2.85;;;;;;;16.72;52.03;96493.41;10416110;28;20072;-76
2021/12/14 12:00:33;;;;;;;3.15;2.30;;;;;;;16.75;51.94;96487.84;10453569;28;20057;-75
2021/12/14 12:05:36;;;;;;;3.13;2.60;;;;;;;16.75;51.81;96499.09;10453489;28;20499;-75
2021/12/14 12:10:43;;;;;;;4.15;2.65;;;;;;;16.79;51.78;96491.69;10453277;28;20384;-76
2021/12/14 12:15:45;;;;;;;3.08;2.58;;;;;;;16.79;51.59;96494.31;10454536;28;20072;-76
2021/12/14 12:20:48;;;;;;;2.95;2.60;;;;;;;16.80;51.42;96491.50;10461262;28;20557;-74
2021/12/14 12:25:51;;;;;;;4.93;3.10;;;;;;;16.81;51.51;96489.72;10460984;28;20053;-75
2021/12/14 12:30:54;;;;;;;3.70;2.92;;;;;;;16.81;51.67;96490.53;10460505;28;20556;-76
2021/12/14 12:36:11;;;;;;;3.03;2.70;;;;;;;16.82;51.52;96504.38;10460700;28;20073;-76
2021/12/14 12:41:18;;;;;;;2.97;2.55;;;;;;;16.83;51.41;96495.53;10441258;28;20049;-76
2021/12/14 12:46:24;;;;;;;2.78;2.58;;;;;;;16.81;51.40;96503.56;10458906;28;20099;-76
2021/12/14 12:51:39;;;;;;;3.00;2.70;;;;;;;16.79;51.59;96487.28;10459270;28;20076;-75
2021/12/14 12:56:43;;;;;;;3.08;2.70;;;;;;;16.81;51.50;96484.50;10459763;28;20053;-76
2021/12/14 13:01:44;;;;;;;4.35;3.10;;;;;;;16.80;51.39;96469.88;10459445;28;20064;-76
2021/12/14 13:07:06;;;;;;;3.55;3.25;;;;;;;16.80;51.56;96478.47;10459656;28;20041;-76
2021/12/14 13:12:08;;;;;;;3.28;2.85;;;;;;;16.80;51.44;96472.47;10458884;28;20399;-76
2021/12/14 13:17:18;;;;;;;3.55;3.22;;;;;;;16.82;51.27;96479.09;10459180;28;20040;-76
2021/12/14 13:22:19;;;;;;;3.42;3.10;;;;;;;16.82;51.41;96480.91;10458645;28;20048;-76
2021/12/14 13:27:24;;;;;;;3.10;2.75;;;;;;;16.81;51.25;96467.06;10458269;28;20044;-76
2021/12/14 13:32:40;;;;;;;3.97;2.90;;;;;;;16.80;51.37;96469.88;10458488;28;20045;-76
2021/12/14 13:37:43;;;;;;;3.78;3.28;;;;;;;16.78;51.31;96490.91;10458386;28;20095;-75
2021/12/14 13:43:00;;;;;;;6.05;3.25;;;;;;;16.78;51.19;96505.72;10458215;28;20049;-74
2021/12/14 13:48:05;;;;;;;4.32;3.45;;;;;;;16.77;51.24;96502.31;10457907;28;20107;-74
2021/12/14 13:53:08;;;;;;;5.63;3.60;;;;;;;16.77;51.27;96491.09;10457912;28;20407;-73
2021/12/14 13:58:25;;;;;;;4.07;3.67;;;;;;;16.74;51.01;96494.84;10457396;28;20053;-74
2021/12/14 14:03:32;;;;;;;4.13;3.65;;;;;;;16.75;51.30;96496.47;10483417;28;20059;-74
2021/12/14 14:08:45;;;;;;;3.90;3.50;;;;;;;16.75;51.26;96485.22;10498585;28;20048;-74
2021/12/14 14:13:50;;;;;;;4.95;3.92;;;;;;;16.76;51.23;96484.25;10497928;28;20428;-74
2021/12/14 14:18:53;;;;;;;4.95;3.75;;;;;;;16.73;51.23;96488.03;10497981;28;20490;-75
2021/12/14 14:23:55;;;;;;;5.65;3.80;;;;;;;16.72;51.08;96483.00;10497887;28;20398;-75
2021/12/14 14:29:07;;;;;;;5.18;4.13;;;;;;;16.71;51.57;96497.03;10497394;28;20036;-74
2021/12/14 14:34:21;;;;;;;4.35;3.95;;;;;;;16.72;51.27;96506.44;10496038;28;20064;-76
2021/12/14 14:39:23;;;;;;;6.63;3.90;;;;;;;16.69;51.18;96505.84;10496530;28;20047;-75
2021/12/14 14:44:33;;;;;;;4.60;4.05;;;;;;;16.68;51.25;96509.44;10496779;28;20113;-74
2021/12/14 14:49:38;;;;;;;5.93;4.40;;;;;;;16.67;51.32;96509.59;10496979;28;20088;-75
2021/12/14 14:54:43;;;;;;;5.03;4.50;;;;;;;16.64;51.15;96510.81;10496656;28;20072;-74
2021/12/14 14:59:54;;;;;;;5.88;4.68;;;;;;;16.64;51.37;96526.44;10492738;28;20059;-76
2021/12/14 15:05:00;;;;;;;5.40;4.53;;;;;;;16.62;51.13;96520.63;10454954;28;20061;-77
2021/12/14 15:10:13;;;;;;;5.57;4.60;;;;;;;16.61;51.29;96507.75;10454637;28;20056;-74
2021/12/14 15:15:28;;;;;;;5.30;4.80;;;;;;;16.59;51.40;96515.75;10454821;28;20045;-75
2021/12/14 15:20:49;;;;;;;5.65;5.07;;;;;;;16.56;51.42;96513.53;10436521;28;20044;-77
2021/12/14 15:26:12;;;;;;;6.15;5.20;;;;;;;16.53;51.51;96526.09;10454383;28;20065;-76
2021/12/14 15:31:27;;;;;;;5.82;5.20;;;;;;;16.51;51.32;96528.88;10454147;28;20043;-77
2021/12/14 15:36:36;;;;;;;6.90;5.82;;;;;;;16.49;51.31;96531.66;10437606;28;20459;-76
2021/12/14 15:41:47;;;;;;;7.03;5.30;;;;;;;16.49;51.44;96536.88;10436032;28;20611;-76
2021/12/14 15:47:06;;;;;;;6.80;5.63;;;;;;;16.44;51.44;96539.22;10436910;28;20048;-76
2021/12/14 15:52:20;;;;;;;7.32;5.70;;;;;;;16.45;51.73;96547.88;10459432;28;20049;-75
2021/12/14 15:57:24;;;;;;;6.55;5.60;;;;;;;16.44;51.47;96548.84;10462069;28;20041;-75
2021/12/14 16:02:38;;;;;;;7.85;5.85;;;;;;;16.39;51.58;96570.25;10473795;28;20084;-75
2021/12/14 16:07:45;;;;;;;6.00;5.10;;;;;;;16.40;51.40;96574.47;10503135;28;20075;-80
2021/12/14 16:18:20;;;;;;;6.05;5.07;;;;;;;16.37;51.51;96587.03;10502232;28;20067;-80
2021/12/14 16:23:33;;;;;;;18.38;5.82;;;;;;;16.34;52.49;96580.41;10501964;28;20136;-76
2021/12/14 16:28:44;;;;;;;;;;;;;;;16.37;52.86;96598.28;10502473;28;20454;-70
2021/12/14 16:33:52;;;;;;;12.95;6.05;;;;;;;16.37;53.06;96594.84;10501397;28;19927;-71
2021/12/14 16:39:11;;;;;;;11.35;5.32;;;;;;;16.36;53.44;96580.22;10501409;28;20166;-71
2021/12/14 16:44:15;;;;;;;12.88;5.47;;;;;;;16.35;53.21;96579.41;10501741;28;20036;-71
2021/12/14 16:49:22;;;;;;;11.10;5.60;;;;;;;16.35;53.27;96581.19;10498244;28;20929;-71
2021/12/14 16:54:24;;;;;;;10.73;5.45;;;;;;;16.34;53.20;96588.22;10497434;28;20056;-71
2021/12/14 16:59:31;;;;;;;8.00;5.05;;;;;;;16.34;53.42;96583.00;10480248;28;20070;-71
2021/12/14 17:04:35;;;;;;;6.83;4.93;;;;;;;16.33;53.40;96591.81;10458898;28;20071;-71
2021/12/14 17:09:37;;;;;;;9.93;4.80;;;;;;;16.31;53.45;96578.94;10456672;28;20365;-71
2021/12/14 17:14:43;;;;;;;10.38;5.32;;;;;;;16.32;53.48;96600.59;10438126;28;20029;-71
2021/12/14 17:19:49;;;;;;;8.65;5.20;;;;;;;16.29;53.56;96601.78;10455935;28;20095;-72
2021/12/14 17:24:59;;;;;;;8.50;5.38;;;;;;;16.30;53.58;96600.81;10455775;28;20029;-71
2021/12/14 17:30:11;;;;;;;6.47;4.70;;;;;;;16.30;53.50;96593.00;10455626;28;20049;-71
2021/12/14 17:35:21;;;;;;;8.43;5.32;;;;;;;16.30;53.47;96592.16;10455028;28;20051;-71
2021/12/14 17:40:33;;;;;;;6.40;4.95;;;;;;;16.29;53.54;96596.56;10455123;28;20048;-71
2021/12/14 17:45:39;;;;;;;8.52;5.50;;;;;;;16.26;53.91;96604.75;10437381;28;20471;-72
2021/12/14 17:50:46;;;;;;;7.70;5.47;;;;;;;16.26;53.67;96617.78;10456132;28;20053;-73
2021/12/14 17:55:51;;;;;;;7.97;5.27;;;;;;;16.27;54.13;96614.19;10457491;28;20045;-78
2021/12/14 18:01:16;;;;;;;6.18;5.15;;;;;;;16.28;53.96;96614.97;10438366;28;20060;-79
2021/12/14 18:06:27;;;;;;;5.53;4.80;;;;;;;16.26;53.85;96615.16;10457049;28;20053;-79
2021/12/14 18:11:37;;;;;;;7.32;5.40;;;;;;;16.26;53.69;96619.56;10443427;28;20638;-78
2021/12/14 18:16:56;;;;;;;6.43;4.95;;;;;;;16.25;53.54;96625.75;10445076;28;20059;-78
2021/12/14 18:22:13;;;;;;;6.35;5.00;;;;;;;16.24;53.35;96630.16;10444329;28;20048;-73
2021/12/14 18:27:19;;;;;;;5.72;4.88;;;;;;;16.24;53.29;96638.00;10434203;28;20045;-75
2021/12/14 18:32:28;;;;;;;10.07;5.43;;;;;;;16.23;53.25;96638.97;10452421;28;20082;-78
2021/12/14 18:37:33;;;;;;;7.43;5.28;;;;;;;16.22;53.38;96645.16;10450970;28;20107;-77
2021/12/14 18:42:39;;;;;;;11.30;5.30;;;;;;;16.22;52.84;96647.75;10452015;28;20044;-77
2021/12/14 18:52:59;;;;;;;7.13;4.90;;;;;;;16.19;53.44;96648.09;10444193;28;20394;-77
2021/12/14 18:58:45;;;;;;;7.35;5.47;;;;;;;16.21;54.31;96637.50;10455423;28;20196;-77
2021/12/14 19:04:06;;;;;;;9.23;5.40;;;;;;;16.20;53.96;96652.34;10516856;28;20163;-74
2021/12/14 19:09:26;;;;;;;24.60;6.03;;;;;;;16.21;54.59;96638.34;10511557;28;20051;-78
2021/12/14 19:14:47;;;;;;;16.05;6.50;;;;;;;16.23;55.54;96644.19;10499653;28;20529;-76
2021/12/14 19:19:48;;;;;;;22.08;6.10;;;;;;;16.24;56.01;96656.22;10515845;28;20040;-80
2021/12/14 19:24:57;;;;;;;15.50;5.75;;;;;;;16.29;56.75;96653.09;10493133;28;20464;-78
2021/12/14 19:30:05;;;;;;;16.25;6.53;;;;;;;16.31;56.73;96653.72;10508772;28;20070;-79
2021/12/14 19:35:12;;;;;;;12.23;5.40;;;;;;;16.33;56.81;96664.75;10523982;28;20041;-76
2021/12/14 19:40:34;;;;;;;14.38;7.10;;;;;;;16.37;57.29;96673.84;10500980;28;20082;-88
2021/12/14 19:45:43;;;;;;;23.45;6.47;;;;;;;16.40;56.97;96680.47;10526749;28;20042;-87
2021/12/14 19:50:48;;;;;;;33.07;10.80;;;;;;;16.41;56.62;96676.88;10500168;28;20048;-76
2021/12/14 19:55:53;;;;;;;22.23;8.35;;;;;;;16.41;56.43;96671.69;10494688;28;20044;-77
2021/12/14 20:01:07;;;;;;;24.83;8.40;;;;;;;16.40;56.72;96672.66;10481559;28;20136;-77
2021/12/14 20:06:15;;;;;;;23.55;8.40;;;;;;;16.39;56.50;96676.28;10435148;28;20060;-77
2021/12/14 20:11:50;;;;;;;21.27;7.63;;;;;;;16.38;56.50;96680.66;10415119;28;20547;-77
2021/12/14 20:16:57;;;;;;;14.38;7.85;;;;;;;16.38;56.22;96690.28;10452185;28;20033;-77
2021/12/14 20:22:00;;;;;;;20.30;7.72;;;;;;;16.36;56.14;96698.28;10453616;28;20077;-76
2021/12/14 20:27:15;;;;;;;18.58;7.68;;;;;;;16.35;55.72;96685.41;10436674;28;20075;-76
2021/12/14 20:32:26;;;;;;;19.67;7.72;;;;;;;16.32;55.60;96684.78;10449892;28;20140;-76
2021/12/14 20:37:32;;;;;;;21.45;8.40;;;;;;;16.31;55.45;96688.38;10454853;28;20491;-77
2021/12/14 20:48:27;;;;;;;22.00;7.82;;;;;;;16.30;55.26;96705.00;10454973;28;20055;-76
2021/12/14 20:53:32;;;;;;;17.85;7.70;;;;;;;16.28;55.09;96701.75;10451741;28;20049;-77
2021/12/14 20:58:49;;;;;;;19.27;8.02;;;;;;;16.27;55.31;96709.75;10457737;28;20052;-78
2021/12/14 21:03:57;;;;;;;15.45;7.50;;;;;;;16.27;54.96;96715.78;10455704;28;20041;-77
2021/12/14 21:09:05;;;;;;;14.25;7.45;;;;;;;16.25;55.17;96722.94;10435175;28;20045;-77
2021/12/14 21:14:14;;;;;;;14.18;7.40;;;;;;;16.24;54.97;96731.78;10455436;28;20056;-77
2021/12/14 21:19:26;;;;;;;16.05;7.05;;;;;;;16.24;55.05;96728.34;10436627;28;20045;-77
2021/12/14 21:24:29;;;;;;;13.18;7.18;;;;;;;16.22;54.98;96732.91;10453514;28;20395;-77
2021/12/14 21:29:48;;;;;;;14.07;7.57;;;;;;;16.23;54.58;96732.75;10437651;28;21119;-77
2021/12/14 21:34:50;;;;;;;16.25;7.75;;;;;;;16.21;54.47;96719.09;10455343;28;20456;-77
2021/12/14 21:40:04;;;;;;;15.27;7.53;;;;;;;16.20;54.77;96727.09;10454950;28;20048;-76
2021/12/14 21:45:21;;;;;;;16.80;8.07;;;;;;;16.20;54.35;96727.09;10455060;28;20076;-76
2021/12/14 21:50:22;;;;;;;13.45;7.85;;;;;;;16.20;54.30;96732.28;10454299;28;20037;-77
2021/12/14 21:55:25;;;;;;;12.50;7.97;;;;;;;16.18;54.00;96734.25;10450655;28;20040;-76
2021/12/14 22:00:32;;;;;;;15.02;8.27;;;;;;;16.16;54.16;96736.22;10455109;28;20550;-77
2021/12/14 22:05:35;;;;;;;15.00;7.88;;;;;;;16.15;53.66;96730.22;10456419;28;20041;-77
2021/12/14 22:10:36;;;;;;;14.85;8.25;;;;;;;16.16;53.86;96731.00;10456521;28;20048;-77
2021/12/14 22:15:47;;;;;;;14.55;7.93;;;;;;;16.12;53.92;96744.38;10457138;28;20033;-77
2021/12/14 22:20:52;;;;;;;16.80;8.38;;;;;;;16.11;54.12;96744.56;10457069;28;20052;-77
2021/12/14 22:25:54;;;;;;;12.80;7.95;;;;;;;16.11;54.05;96755.81;10435750;28;20522;-77
2021/12/14 22:30:57;;;;;;;13.77;8.20;;;;;;;16.11;53.26;96754.97;10456742;28;20060;-77
2021/12/14 22:35:58;;;;;;;13.18;7.70;;;;;;;16.09;53.49;96746.53;10456794;28;20116;-76
2021/12/14 22:41:22;;;;;;;12.60;7.75;;;;;;;16.07;53.94;96748.50;10456065;28;20048;-76
2021/12/14 22:46:26;;;;;;;18.92;8.00;;;;;;;16.07;53.73;96741.50;10456208;28;20048;-76
2021/12/14 22:51:28;;;;;;;12.93;7.47;;;;;;;16.07;53.84;96735.50;10455663;28;20095;-76
2021/12/14 22:56:30;;;;;;;13.80;7.30;;;;;;;16.06;53.92;96742.47;10437517;28;20045;-77
2021/12/14 23:01:35;;;;;;;12.15;8.07;;;;;;;16.05;53.66;96742.66;10454368;28;20056;-77
2021/12/14 23:06:40;;;;;;;11.70;7.70;;;;;;;16.04;53.43;96747.06;10446380;28;20043;-77
2021/12/14 23:11:42;;;;;;;12.10;7.50;;;;;;;16.04;53.41;96746.25;10454468;28;20052;-77
2021/12/14 23:16:54;;;;;;;18.13;8.00;;;;;;;16.02;53.90;96740.38;10454556;28;20041;-77
2021/12/14 23:21:56;;;;;;;12.82;7.85;;;;;;;16.02;53.41;96746.44;10436302;28;20495;-77
2021/12/14 23:26:58;;;;;;;12.88;7.88;;;;;;;16.01;53.70;96755.22;10454604;28;20067;-77
2021/12/14 23:31:59;;;;;;;12.10;7.55;;;;;;;16.01;53.55;96755.22;10454142;28;20052;-77
2021/12/14 23:37:02;;;;;;;9.25;7.03;;;;;;;16.01;53.40;96754.41;10453415;28;20095;-77
2021/12/14 23:42:08;;;;;;;14.25;8.07;;;;;;;16.01;53.43;96744.78;10411426;28;20045;-77
2021/12/14 23:47:23;;;;;;;9.75;7.32;;;;;;;15.99;53.50;96746.78;10436234;28;20052;-77
2021/12/14 23:52:26;;;;;;;10.27;7.35;;;;;;;16.01;53.70;96736.19;10453405;28;20041;-77
2021/12/14 23:57:28;;;;;;;11.50;7.47;;;;;;;16.00;53.70;96743.16;10453453;28;20487;-77
